• Join FlightAware (Why Join?)
  • Login
  • US Flag 
03:49AM EDT


 

Airport Tracker/Info


-or-


 

Live Flight TrackerFlight Track Log ✈ CTL311 ✈ 02-Jul-2013 ✈ KMDW - KBMI

Flight Track Log - Related Links

Times and Time Zones

All times are in EDT time to prevent confusion due to time zone crossing. See the CTL311 flight status page for this flight to view local times or setup timezone preferences in your user account.

Time Position Orientation Groundspeed Altitude Reporting Facility
EDT Latitude Longitude Course Direction KTS MPH feet Rate Location/Type
10:07PM 41.7833 -87.7333 143° Southeast 128 147 1,400  Level Chicago TRACON
10:08PM 41.7500 -87.7000 143° Southeast 127 146 2,600 900 Climbing Chicago TRACON
10:09PM 41.7269 -87.6706 136° Southeast 152 175 3,200 1,140 Climbing Chicago Center
10:10PM 41.7017 -87.6978 219° Southwest 129 148 4,900 1,200 Climbing Chicago Center
10:11PM 41.6781 -87.7231 219° Southwest 114 131 5,700 540 Climbing Chicago Center
10:12PM 41.6469 -87.7544 217° Southwest 124 143 6,000 120 Climbing Chicago Center
10:13PM 41.6075 -87.7944 217° Southwest 155 178 6,000 -60 Level Chicago Center
10:15PM 41.5650 -87.8286 211° Southwest 171 197 5,900 -60 Descending Chicago Center
10:16PM 41.5228 -87.8603 209° Southwest 174 200 5,900  Level Chicago Center
10:17PM 41.4753 -87.9097 218° Southwest 178 205 6,000  Climbing Chicago Center
10:18PM 41.4361 -87.9494 217° Southwest 177 204 5,900 -60 Descending Chicago Center
10:19PM 41.3947 -87.9900 216° Southwest 181 208 5,900  Level Chicago Center
10:20PM 41.3550 -88.0286 216° Southwest 175 201 6,000  Climbing Chicago Center
10:21PM 41.3150 -88.0664 215° Southwest 175 201 6,000  Level Chicago Center
10:22PM 41.2731 -88.1039 214° Southwest 180 207 6,000 -180 Level Chicago Center
10:23PM 41.2336 -88.1422 216° Southwest 178 205 5,700 -300 Descending Chicago Center
10:24PM 41.1903 -88.1811 214° Southwest 184 212 5,400 -300 Descending Chicago Center
10:25PM 41.1475 -88.2233 217° Southwest 190 219 5,100 -360 Descending Chicago Center
10:26PM 41.1064 -88.2636 216° Southwest 187 215 4,700 -480 Descending Chicago Center
10:27PM 41.0636 -88.3047 216° Southwest 189 217 4,200 -420 Descending Chicago Center
10:28PM 41.0239 -88.3475 219° Southwest 187 215 3,900 -120 Descending Chicago Center
10:29PM 40.9803 -88.3981 221° Southwest 178 205 4,000  Climbing Chicago Center
10:30PM 40.9431 -88.4367 218° Southwest 172 198 3,900  Descending Chicago Center
10:31PM 40.9039 -88.4731 215° Southwest 173 199 4,000  Climbing Chicago Center
10:32PM 40.8669 -88.5114 218° Southwest 171 197 3,900 -120 Descending Chicago Center
10:33PM 40.8294 -88.5519 219° Southwest 174 200 3,800  Descending Chicago Center
10:34PM 40.7933 -88.5936 221° Southwest 173 199 3,900  Climbing Chicago Center
10:35PM 40.7581 -88.6344 221° Southwest 172 198 3,900 -120 Level Chicago Center
10:36PM 40.7236 -88.6758 222° Southwest 170 196 3,700 -120 Descending Chicago Center
10:37PM 40.6900 -88.7381 235° Southwest 172 198 3,700 -360 Level Chicago Center
10:38PM 40.6442 -88.7733 210° Southwest 181 208 3,000 -600 Descending Chicago Center
10:39PM 40.5975 -88.8103 211° Southwest 190 219 2,600 -420 Descending Chicago Center
10:40PM 40.5514 -88.8442 209° Southwest 191 220 2,200 -540 Descending Chicago Center
10:41PM 40.5100 -88.8728 208° Southwest 183 211 1,600 -420 Descending Chicago Center
10:42PM 40.4731 -88.8994 209° Southwest 178 205 1,400 -240 Descending Chicago Center
10:44PM 40.4667 -88.9000 201° Southwest  Level FlightAware Approximate
10:51PM 40.4771 -88.9159 201° Southwest  Level Estimated